createdAt,value
2017-08-27T06:20:21.133Z,18.90
2017-08-27T06:36:20.490Z,19.40
2017-08-27T06:38:48.128Z,19.50
2017-08-27T06:41:15.146Z,19.60
2017-08-27T06:43:42.097Z,19.70
2017-08-27T06:46:08.988Z,19.80
2017-08-27T06:48:35.907Z,20.00
2017-08-27T06:56:25.735Z,20.30
2017-08-27T06:58:57.852Z,20.30
2017-08-27T07:01:26.915Z,20.40
2017-08-27T07:03:56.215Z,20.50
2017-08-27T07:06:23.855Z,20.60
2017-08-27T07:08:50.755Z,20.70
2017-08-27T07:14:18.340Z,20.90
2017-08-27T07:16:45.191Z,21.00
2017-08-27T07:19:12.028Z,21.10
2017-08-27T07:21:38.850Z,21.20
2017-08-27T07:24:05.659Z,21.40
2017-08-27T07:26:33.347Z,21.50
2017-08-27T07:29:00.201Z,21.60
2017-08-27T07:31:27.047Z,21.70
2017-08-27T07:33:54.907Z,21.90
2017-08-27T07:36:21.727Z,22.10
2017-08-27T07:38:50.060Z,22.20
2017-08-27T07:41:21.433Z,22.30
2017-08-27T07:43:48.875Z,22.30
2017-08-27T07:46:27.308Z,22.40
2017-08-27T07:48:54.168Z,22.40
2017-08-27T07:51:23.727Z,22.50
2017-08-27T07:53:50.562Z,22.50
2017-08-27T07:57:31.444Z,22.70
2017-08-27T07:59:58.320Z,22.80
2017-08-27T08:05:05.574Z,23.10
2017-08-27T08:07:33.024Z,23.30
2017-08-27T08:10:00.396Z,23.20
2017-08-27T08:12:27.349Z,23.10
2017-08-27T08:14:54.344Z,23.00
2017-08-27T08:17:24.718Z,23.00
2017-08-27T08:19:53.667Z,23.00
2017-08-27T08:22:21.400Z,22.90
2017-08-27T08:24:49.612Z,22.80
2017-08-27T08:27:17.239Z,22.80
2017-08-27T08:29:44.085Z,22.90
2017-08-27T08:32:10.976Z,23.10
2017-08-27T08:34:37.847Z,23.30
2017-08-27T08:37:04.659Z,23.50
2017-08-27T08:39:31.654Z,23.60
2017-08-27T08:41:58.531Z,23.70
2017-08-27T08:44:25.388Z,23.90
2017-08-27T08:46:52.188Z,24.00
2017-08-27T08:49:19.004Z,24.10
2017-08-27T08:51:45.844Z,24.10
2017-08-27T08:54:12.695Z,24.10
2017-08-27T08:56:39.502Z,24.10
2017-08-27T08:59:06.288Z,24.10
2017-08-27T09:01:33.212Z,24.10
2017-08-27T09:04:00.044Z,24.10
2017-08-27T09:06:26.827Z,24.00
2017-08-27T09:08:53.708Z,24.10
2017-08-27T09:11:20.520Z,24.20
2017-08-27T09:13:47.379Z,24.50
2017-08-27T09:16:14.135Z,24.60
2017-08-27T09:18:40.931Z,24.80
2017-08-27T09:21:08.503Z,25.00
2017-08-27T09:23:35.339Z,25.10
2017-08-27T09:26:02.656Z,25.20
2017-08-27T09:28:29.434Z,25.20
2017-08-27T09:30:56.275Z,25.30
2017-08-27T09:33:23.132Z,25.30
2017-08-27T09:35:49.943Z,25.30
2017-08-27T09:38:17.387Z,25.30
2017-08-27T09:40:44.331Z,25.30
2017-08-27T09:43:11.979Z,25.40
2017-08-27T09:45:38.827Z,25.40
2017-08-27T09:48:05.670Z,25.50
2017-08-27T09:50:32.503Z,25.70
2017-08-27T09:52:59.308Z,25.80
2017-08-27T09:55:27.027Z,25.90
2017-08-27T09:57:53.840Z,25.90
2017-08-27T10:00:20.626Z,25.90
2017-08-27T10:02:47.416Z,25.90
2017-08-27T10:05:14.235Z,26.00
2017-08-27T10:07:41.080Z,26.10
2017-08-27T10:10:07.903Z,26.20
2017-08-27T10:12:34.679Z,26.20
2017-08-27T10:15:01.498Z,26.30
2017-08-27T10:17:28.367Z,26.50
2017-08-27T10:19:55.183Z,26.50
2017-08-27T10:22:21.952Z,26.50
2017-08-27T10:24:48.744Z,26.60
2017-08-27T10:27:15.568Z,26.80
2017-08-27T10:29:42.335Z,27.10
2017-08-27T10:32:09.103Z,27.10
2017-08-27T10:34:35.951Z,27.30
2017-08-27T10:37:02.743Z,27.40
2017-08-27T10:39:29.515Z,27.60
2017-08-27T10:41:58.050Z,27.70
2017-08-27T10:44:24.870Z,27.80
2017-08-27T10:46:51.704Z,27.80
2017-08-27T10:49:19.268Z,27.80
2017-08-27T10:51:46.051Z,27.90
2017-08-27T10:54:13.851Z,27.70
2017-08-27T10:56:40.983Z,27.70
2017-08-27T10:59:08.203Z,27.70
2017-08-27T11:01:35.001Z,27.70
2017-08-27T11:04:01.819Z,27.70
2017-08-27T11:06:28.630Z,27.80
2017-08-27T11:08:55.410Z,27.90
2017-08-27T11:11:22.207Z,27.90
2017-08-27T11:13:49.023Z,27.90
2017-08-27T11:16:15.803Z,28.20
2017-08-27T11:18:42.775Z,28.20
2017-08-27T11:21:09.575Z,28.30
2017-08-27T11:23:37.089Z,28.40
2017-08-27T11:26:04.739Z,28.50
2017-08-27T11:33:55.699Z,28.20
2017-08-27T11:39:04.211Z,28.00
2017-08-27T11:41:35.732Z,27.90
2017-08-27T11:44:16.395Z,27.70
2017-08-27T11:46:46.140Z,27.60
2017-08-27T11:54:36.165Z,27.20
2017-08-27T11:57:03.679Z,27.10
2017-08-27T11:59:32.979Z,27.00
2017-08-27T12:02:00.199Z,26.90
2017-08-27T12:04:27.003Z,26.80
2017-08-27T12:06:53.774Z,26.80
2017-08-27T12:09:20.535Z,26.80
2017-08-27T12:11:47.442Z,26.90
2017-08-27T12:14:14.231Z,27.00
2017-08-27T12:16:43.020Z,27.20
2017-08-27T12:19:10.187Z,27.30
2017-08-27T12:21:37.051Z,27.40
2017-08-27T12:24:03.847Z,27.50
2017-08-27T12:26:30.631Z,27.50
2017-08-27T12:28:57.447Z,27.50
2017-08-27T12:31:24.219Z,27.70
2017-08-27T12:33:51.855Z,27.80
2017-08-27T12:36:18.658Z,28.20
2017-08-27T12:38:45.447Z,28.60
2017-08-27T12:41:13.535Z,28.60
2017-08-27T12:43:40.300Z,28.70
2017-08-27T12:46:07.119Z,28.70
2017-08-27T12:48:39.916Z,28.70
2017-08-27T12:54:04.876Z,28.40
2017-08-27T12:56:38.815Z,28.20
2017-08-27T12:59:09.961Z,28.00
2017-08-27T13:01:38.696Z,27.80
2017-08-27T13:04:15.647Z,27.70
2017-08-27T13:06:42.423Z,27.30
2017-08-27T13:09:09.391Z,27.10
2017-08-27T13:11:37.974Z,26.90
2017-08-27T13:14:04.783Z,26.70
2017-08-27T13:16:32.975Z,26.60
2017-08-27T13:19:01.655Z,26.40
2017-08-27T13:21:28.495Z,26.20
2017-08-27T13:23:55.315Z,26.00
2017-08-27T13:26:22.123Z,25.80
2017-08-27T13:28:48.935Z,25.80
2017-08-27T13:31:15.896Z,25.70
2017-08-27T13:33:43.804Z,25.60
2017-08-27T13:36:21.410Z,25.30
2017-08-27T13:41:24.025Z,24.80
2017-08-27T13:43:50.836Z,24.60
2017-08-27T13:46:17.680Z,24.60
2017-08-27T13:48:44.471Z,24.50
2017-08-27T13:51:11.266Z,24.50
2017-08-27T13:53:38.083Z,24.50
2017-08-27T13:56:05.811Z,24.60
2017-08-27T13:58:32.608Z,24.70
2017-08-27T14:01:01.492Z,24.80
2017-08-27T14:03:28.335Z,25.00
2017-08-27T14:05:55.131Z,25.50
2017-08-27T14:08:21.979Z,26.30
2017-08-27T14:10:48.823Z,26.90
2017-08-27T14:13:15.623Z,27.50
2017-08-27T14:15:42.404Z,27.90
2017-08-27T14:18:09.227Z,28.30
2017-08-27T14:20:36.011Z,28.60
2017-08-27T14:23:02.851Z,28.90
2017-08-27T14:25:29.703Z,29.10
2017-08-27T14:27:56.487Z,29.10
2017-08-27T14:30:23.291Z,29.10
2017-08-27T14:32:50.098Z,29.30
2017-08-27T14:35:16.943Z,29.30
2017-08-27T14:37:43.739Z,29.40
2017-08-27T14:40:10.571Z,29.60
2017-08-27T14:42:37.379Z,29.70
2017-08-27T14:45:04.222Z,29.80
2017-08-27T14:47:31.539Z,29.80
2017-08-27T14:49:58.326Z,29.70
2017-08-27T14:52:26.351Z,29.80
2017-08-27T14:54:53.623Z,29.70
2017-08-27T14:57:21.072Z,29.50
2017-08-27T14:59:47.826Z,29.60
2017-08-27T15:02:16.624Z,29.60
2017-08-27T15:04:45.767Z,29.30
2017-08-27T15:07:15.058Z,29.40
2017-08-27T15:09:43.771Z,29.20
2017-08-27T15:12:14.312Z,28.90
2017-08-27T15:14:43.055Z,28.80
2017-08-27T15:17:10.087Z,28.80
2017-08-27T15:19:37.915Z,28.80
2017-08-27T15:22:05.253Z,28.70
2017-08-27T15:24:34.127Z,28.70
2017-08-27T15:27:00.931Z,28.70
2017-08-27T15:29:27.735Z,28.60
2017-08-27T15:31:54.527Z,28.60
2017-08-27T15:34:21.296Z,28.60
2017-08-27T15:36:49.087Z,28.50
2017-08-27T15:39:16.884Z,28.50
2017-08-27T15:41:45.307Z,28.50
2017-08-27T15:44:13.779Z,28.30
2017-08-27T15:46:43.467Z,28.00
2017-08-27T15:51:49.091Z,27.40
2017-08-27T15:54:18.535Z,27.10
2017-08-27T15:56:48.235Z,27.10
2017-08-27T15:59:19.419Z,27.20
2017-08-27T16:01:48.110Z,27.40
2017-08-27T16:04:15.682Z,27.30
2017-08-27T16:06:43.899Z,27.40
2017-08-27T16:09:15.664Z,27.30
2017-08-27T16:11:43.599Z,27.20
2017-08-27T16:14:11.425Z,27.10
2017-08-27T16:16:41.564Z,27.20
2017-08-27T16:19:10.179Z,27.30
2017-08-27T16:21:37.008Z,27.30
2017-08-27T16:24:04.459Z,27.40
2017-08-27T16:26:31.266Z,27.40
2017-08-27T16:28:59.439Z,27.40
2017-08-27T16:31:28.017Z,27.40
2017-08-27T16:33:54.834Z,27.50
2017-08-27T16:36:21.683Z,27.50
2017-08-27T16:38:48.573Z,27.50
2017-08-27T16:41:17.390Z,27.30
2017-08-27T16:43:45.072Z,27.40
2017-08-27T16:46:11.887Z,27.30
2017-08-27T16:48:38.702Z,27.30
2017-08-27T16:51:05.571Z,27.10
2017-08-27T16:53:35.299Z,27.10
2017-08-27T16:56:04.123Z,27.00
2017-08-27T16:58:31.979Z,26.90
2017-08-27T17:00:59.827Z,26.70
2017-08-27T17:03:29.339Z,26.60
2017-08-27T17:05:57.036Z,26.50
2017-08-27T17:08:24.255Z,26.30
2017-08-27T17:10:51.091Z,26.20
2017-08-27T17:13:17.919Z,26.00
2017-08-27T17:15:45.235Z,25.90
2017-08-27T17:18:12.047Z,25.80
2017-08-27T17:20:39.911Z,25.70
2017-08-27T17:23:06.824Z,25.60
2017-08-27T17:25:33.699Z,25.50
2017-08-27T17:28:00.541Z,25.30
2017-08-27T17:30:27.373Z,25.20
2017-08-27T17:32:54.232Z,25.20
2017-08-27T17:35:21.296Z,25.00
2017-08-27T17:37:48.135Z,24.80
2017-08-27T17:40:14.961Z,24.80
2017-08-27T17:42:41.979Z,24.60
2017-08-27T17:45:09.212Z,24.50
2017-08-27T17:47:36.095Z,24.40
2017-08-27T17:50:02.968Z,24.30
2017-08-27T17:52:29.828Z,24.20
2017-08-27T17:54:56.671Z,24.00
2017-08-27T17:57:23.518Z,23.90
2017-08-27T17:59:53.612Z,23.70
2017-08-27T18:02:21.379Z,23.60
2017-08-27T18:04:48.256Z,23.60
2017-08-27T18:07:15.152Z,23.40
2017-08-27T18:09:41.980Z,23.30
2017-08-27T18:12:08.875Z,23.10
2017-08-27T18:14:36.659Z,23.00
2017-08-27T18:17:03.529Z,22.90
2017-08-27T18:19:30.344Z,22.70
2017-08-27T18:22:02.519Z,22.60
2017-08-27T18:24:30.329Z,22.50
2017-08-27T18:26:58.566Z,22.50
2017-08-27T18:29:30.303Z,22.50
2017-08-27T18:34:56.594Z,22.50
2017-08-27T18:48:12.707Z,22.00
2017-08-27T18:56:09.605Z,21.70
2017-08-27T18:58:45.887Z,21.70
2017-08-27T19:01:26.461Z,21.60
2017-08-27T19:06:45.494Z,21.40
2017-08-27T19:09:19.276Z,21.30
2017-08-27T19:11:46.424Z,21.30
2017-08-27T19:14:14.796Z,21.20
2017-08-27T19:16:42.228Z,21.10
2017-08-27T19:19:10.293Z,21.10
2017-08-27T19:21:37.236Z,21.10
2017-08-27T19:24:04.147Z,21.00
2017-08-27T19:26:31.047Z,21.00
2017-08-27T19:28:58.904Z,20.90
2017-08-27T19:31:25.831Z,20.90
2017-08-27T19:33:52.727Z,20.80
2017-08-27T19:36:19.936Z,20.70
2017-08-27T19:41:31.388Z,20.70
2017-08-27T19:43:59.144Z,20.70
2017-08-27T19:46:27.733Z,20.70
2017-08-27T19:48:56.580Z,20.70
2017-08-27T19:51:23.507Z,20.70
2017-08-27T19:53:51.787Z,20.70
2017-08-27T19:56:19.316Z,20.80
2017-08-27T19:58:46.212Z,20.80
2017-08-27T20:01:13.992Z,20.80
2017-08-27T20:03:40.924Z,20.80
2017-08-27T20:06:07.909Z,20.70
2017-08-27T20:08:35.282Z,20.70
2017-08-27T20:11:02.468Z,20.60
2017-08-27T20:13:30.949Z,20.60
2017-08-27T20:16:00.450Z,20.50
2017-08-27T20:18:28.791Z,20.50
2017-08-27T20:20:58.067Z,20.40
2017-08-27T20:23:32.398Z,20.40
2017-08-27T22:31:05.172Z,18.80
2017-08-27T22:38:44.900Z,18.70
2017-08-27T22:41:12.117Z,18.70
2017-08-27T22:43:39.096Z,18.60
2017-08-27T22:46:08.432Z,18.60
2017-08-27T22:48:38.116Z,18.60
2017-08-27T23:11:15.164Z,18.70
2017-08-27T23:16:27.208Z,18.70
2017-08-27T23:21:31.581Z,18.70
2017-08-27T23:24:00.568Z,18.80
2017-08-27T23:26:27.932Z,18.80
2017-08-27T23:29:01.416Z,18.90
2017-08-27T23:31:30.432Z,18.90
2017-08-27T23:33:58.717Z,18.90
2017-08-27T23:42:04.365Z,19.00
